createdAt,value
2022-11-29T00:00:16.791Z,2.90
2022-11-29T00:00:39.520Z,2.90
2022-11-29T00:01:04.471Z,2.90
2022-11-29T00:01:28.079Z,2.90
2022-11-29T00:01:50.829Z,2.90
2022-11-29T00:02:13.670Z,2.90
2022-11-29T00:02:36.696Z,2.90
2022-11-29T00:03:01.346Z,2.90
2022-11-29T00:03:24.515Z,2.90
2022-11-29T00:03:47.293Z,3.00
2022-11-29T00:04:12.151Z,3.00
2022-11-29T00:04:35.030Z,3.00
2022-11-29T00:04:57.842Z,3.00
2022-11-29T00:05:20.516Z,3.00
2022-11-29T00:05:43.245Z,3.00
2022-11-29T00:06:08.339Z,3.00
2022-11-29T00:06:32.037Z,3.00
2022-11-29T00:06:54.730Z,3.00
2022-11-29T00:07:17.649Z,3.00
2022-11-29T00:07:40.374Z,3.00
2022-11-29T00:08:03.130Z,2.90
2022-11-29T00:08:25.850Z,3.00
2022-11-29T00:08:48.618Z,3.00
2022-11-29T00:09:12.765Z,2.90
2022-11-29T00:09:35.516Z,2.90
2022-11-29T00:09:58.215Z,2.90
2022-11-29T00:10:21.001Z,2.90
2022-11-29T00:10:43.770Z,2.80
2022-11-29T00:11:09.030Z,2.80
2022-11-29T00:11:51.751Z,2.90
2022-11-29T00:12:14.608Z,2.90
2022-11-29T00:12:37.308Z,2.80
2022-11-29T00:12:59.990Z,2.80
2022-11-29T00:13:22.716Z,2.80
2022-11-29T00:13:45.435Z,2.80
2022-11-29T00:14:11.031Z,2.80
2022-11-29T00:14:33.751Z,2.80
2022-11-29T00:14:56.461Z,2.80
2022-11-29T00:15:19.140Z,2.80
2022-11-29T00:15:41.937Z,2.80
2022-11-29T00:16:05.425Z,2.80
2022-11-29T00:16:28.290Z,2.80
2022-11-29T00:16:52.093Z,2.80
2022-11-29T00:17:15.000Z,2.80
2022-11-29T00:17:37.767Z,2.80
2022-11-29T00:18:01.910Z,2.80
2022-11-29T00:18:24.650Z,2.80
2022-11-29T00:18:49.065Z,2.80
2022-11-29T00:19:12.771Z,2.80
2022-11-29T00:19:36.027Z,2.80
2022-11-29T00:19:58.706Z,2.90
2022-11-29T00:20:21.838Z,2.80
2022-11-29T00:20:44.632Z,2.90
2022-11-29T00:21:07.895Z,2.90
2022-11-29T00:21:30.534Z,2.90
2022-11-29T00:21:53.261Z,2.90
2022-11-29T00:22:15.886Z,2.90
2022-11-29T00:22:38.804Z,2.80
2022-11-29T00:23:01.755Z,2.90
2022-11-29T00:23:24.624Z,2.80
2022-11-29T00:23:47.350Z,2.90
2022-11-29T00:24:10.328Z,2.90
2022-11-29T00:24:33.255Z,2.90
2022-11-29T00:24:56.015Z,2.90
2022-11-29T00:25:18.794Z,2.90
2022-11-29T00:25:43.815Z,2.90
2022-11-29T00:26:07.073Z,2.90
2022-11-29T00:26:29.692Z,2.90
2022-11-29T00:26:52.463Z,2.90
2022-11-29T00:27:15.160Z,2.90
2022-11-29T00:27:37.967Z,2.90
2022-11-29T00:28:00.735Z,2.90
2022-11-29T00:28:23.467Z,2.90
2022-11-29T00:28:46.230Z,2.90
2022-11-29T00:29:10.206Z,2.90
2022-11-29T00:29:32.975Z,3.00
2022-11-29T00:29:55.750Z,2.90
2022-11-29T00:30:18.588Z,2.90
2022-11-29T00:30:41.310Z,2.90
2022-11-29T00:31:14.765Z,2.90
2022-11-29T00:31:37.791Z,2.90
2022-11-29T00:32:00.731Z,2.90
2022-11-29T00:32:23.511Z,2.90
2022-11-29T00:32:46.227Z,3.00
2022-11-29T00:33:10.545Z,2.90
2022-11-29T00:33:33.261Z,2.90
2022-11-29T00:33:56.571Z,2.90
2022-11-29T00:34:19.345Z,2.90
2022-11-29T00:34:42.370Z,2.90
2022-11-29T00:35:09.669Z,2.90
2022-11-29T00:35:32.671Z,3.00
2022-11-29T00:35:55.455Z,2.90
2022-11-29T00:36:18.302Z,3.00
2022-11-29T00:36:41.122Z,3.00
2022-11-29T00:37:06.651Z,3.00
2022-11-29T00:37:29.375Z,3.00
2022-11-29T00:37:52.150Z,2.90
2022-11-29T00:38:14.905Z,2.90
2022-11-29T00:38:37.591Z,2.90
2022-11-29T00:39:00.338Z,2.90
2022-11-29T00:39:23.095Z,2.90
2022-11-29T00:39:45.797Z,2.90
2022-11-29T00:40:09.751Z,2.90
2022-11-29T00:40:33.430Z,2.90
2022-11-29T00:40:56.240Z,2.90
2022-11-29T00:41:19.018Z,2.90
2022-11-29T00:41:41.875Z,2.90
2022-11-29T00:42:04.717Z,2.80
2022-11-29T00:42:27.386Z,2.80
2022-11-29T00:42:50.095Z,2.80
2022-11-29T00:43:12.782Z,2.80
2022-11-29T00:43:36.031Z,2.80
2022-11-29T00:43:58.870Z,2.80
2022-11-29T00:44:21.590Z,2.90
2022-11-29T00:44:44.490Z,2.80
2022-11-29T00:45:08.685Z,2.80
2022-11-29T00:45:31.370Z,2.80
2022-11-29T00:45:54.124Z,2.70
2022-11-29T00:46:17.001Z,2.70
2022-11-29T00:46:39.758Z,2.70
2022-11-29T00:47:02.566Z,2.70
2022-11-29T00:47:25.301Z,2.60
2022-11-29T00:47:48.070Z,2.60
2022-11-29T00:48:12.271Z,2.60
2022-11-29T00:48:35.110Z,2.60
2022-11-29T00:48:57.819Z,2.60
2022-11-29T00:49:20.516Z,2.50
2022-11-29T00:49:43.212Z,2.60
2022-11-29T00:50:07.270Z,2.60
2022-11-29T00:50:29.935Z,2.60
2022-11-29T00:50:52.645Z,2.60
2022-11-29T00:51:15.350Z,2.60
2022-11-29T00:51:40.930Z,2.60
2022-11-29T00:52:03.735Z,2.60
2022-11-29T00:52:26.455Z,2.60
2022-11-29T00:52:49.790Z,2.60
2022-11-29T00:53:12.512Z,2.60
2022-11-29T00:53:35.751Z,2.70
2022-11-29T00:53:58.385Z,2.70
2022-11-29T00:54:21.130Z,2.60
2022-11-29T00:54:43.971Z,2.70
2022-11-29T00:55:07.881Z,2.70
2022-11-29T00:55:30.667Z,2.70
2022-11-29T00:55:53.665Z,2.70
2022-11-29T00:56:16.471Z,2.70
2022-11-29T00:56:39.190Z,2.70
2022-11-29T00:57:01.992Z,2.70
2022-11-29T00:57:24.640Z,2.70
2022-11-29T00:57:47.361Z,2.70
2022-11-29T00:58:10.070Z,2.70
2022-11-29T00:58:32.808Z,2.70
2022-11-29T00:58:55.691Z,2.70
2022-11-29T00:59:18.471Z,2.80
2022-11-29T00:59:41.221Z,2.80
2022-11-29T01:00:04.656Z,2.80
2022-11-29T01:00:27.386Z,2.80
2022-11-29T01:00:50.170Z,2.80
2022-11-29T01:01:12.984Z,2.80
2022-11-29T01:01:35.786Z,2.80
2022-11-29T01:01:58.585Z,2.90
2022-11-29T01:02:21.380Z,2.90
2022-11-29T01:02:45.821Z,2.90
2022-11-29T01:03:08.536Z,2.90
2022-11-29T01:03:32.875Z,2.90
2022-11-29T01:03:55.527Z,2.90
2022-11-29T01:04:18.317Z,2.90
2022-11-29T01:04:41.168Z,2.90
2022-11-29T01:05:04.115Z,2.90
2022-11-29T01:05:26.825Z,2.90
2022-11-29T01:05:49.570Z,2.90
2022-11-29T01:06:13.470Z,2.90
2022-11-29T01:06:36.095Z,2.90
2022-11-29T01:06:58.991Z,2.80
2022-11-29T01:07:21.772Z,2.80
2022-11-29T01:07:44.523Z,2.90
2022-11-29T01:08:07.400Z,2.80
2022-11-29T01:08:30.140Z,2.80
2022-11-29T01:08:54.250Z,2.80
2022-11-29T01:09:16.950Z,2.70
2022-11-29T01:09:40.096Z,2.80
2022-11-29T01:10:04.410Z,2.70
2022-11-29T01:10:27.047Z,2.70
2022-11-29T01:10:49.751Z,2.70
2022-11-29T01:11:14.080Z,2.70
2022-11-29T01:11:36.852Z,2.70
2022-11-29T01:11:59.546Z,2.70
2022-11-29T01:12:22.276Z,2.70
2022-11-29T01:12:44.909Z,2.80
2022-11-29T01:13:07.580Z,2.70
2022-11-29T01:13:30.396Z,2.70
2022-11-29T01:13:55.506Z,2.80
2022-11-29T01:14:19.300Z,2.80
2022-11-29T01:14:43.165Z,2.80
2022-11-29T01:15:07.208Z,2.80
2022-11-29T01:15:29.846Z,2.80
2022-11-29T01:15:56.236Z,2.80
2022-11-29T01:16:19.100Z,2.80
2022-11-29T01:16:41.981Z,2.80
2022-11-29T01:17:04.781Z,2.80
2022-11-29T01:17:27.525Z,2.80
2022-11-29T01:17:50.575Z,2.80
2022-11-29T01:18:13.335Z,2.80
2022-11-29T01:18:37.630Z,2.80
2022-11-29T01:19:00.651Z,2.90
2022-11-29T01:19:23.380Z,2.90
2022-11-29T01:19:50.775Z,2.90
2022-11-29T01:20:14.152Z,2.90
2022-11-29T01:20:36.945Z,2.90
2022-11-29T01:21:00.233Z,2.90
2022-11-29T01:21:24.321Z,2.90
2022-11-29T01:21:46.986Z,2.90
2022-11-29T01:22:09.755Z,2.90
2022-11-29T01:22:32.475Z,3.00
2022-11-29T01:22:55.191Z,3.00
2022-11-29T01:23:17.795Z,2.90
2022-11-29T01:23:40.775Z,3.00
2022-11-29T01:24:03.609Z,2.90
2022-11-29T01:24:26.376Z,2.90
2022-11-29T01:24:49.340Z,2.90
2022-11-29T01:25:13.212Z,2.90
2022-11-29T01:25:35.885Z,2.90
2022-11-29T01:26:00.092Z,2.90
2022-11-29T01:26:23.979Z,2.80
2022-11-29T01:26:46.800Z,2.80
2022-11-29T01:27:10.271Z,2.90
2022-11-29T01:27:33.035Z,2.90
2022-11-29T01:27:56.180Z,2.90
2022-11-29T01:28:19.905Z,2.80
2022-11-29T01:28:42.615Z,2.80
2022-11-29T01:29:05.386Z,2.90
2022-11-29T01:29:28.610Z,2.90
2022-11-29T01:29:51.296Z,2.90
2022-11-29T01:30:14.496Z,2.90
2022-11-29T01:30:38.212Z,2.90
2022-11-29T01:31:07.709Z,2.90
2022-11-29T01:31:32.775Z,2.90
2022-11-29T01:31:58.040Z,2.90
2022-11-29T01:32:20.687Z,2.90
2022-11-29T01:32:43.435Z,2.90
2022-11-29T01:33:06.172Z,2.90
2022-11-29T01:33:28.951Z,2.80
2022-11-29T01:33:55.166Z,2.90
2022-11-29T01:34:17.834Z,2.90
2022-11-29T01:34:40.624Z,2.90
2022-11-29T01:35:03.522Z,2.90
2022-11-29T01:35:26.311Z,2.90
2022-11-29T01:35:49.602Z,2.80
2022-11-29T01:36:12.878Z,2.90
2022-11-29T01:36:35.834Z,2.80
2022-11-29T01:36:58.938Z,2.80
2022-11-29T01:37:21.681Z,2.80
2022-11-29T01:37:44.510Z,2.80
2022-11-29T01:38:07.190Z,2.80
2022-11-29T01:38:30.441Z,2.80
2022-11-29T01:38:53.127Z,2.80
2022-11-29T01:39:15.807Z,2.90
2022-11-29T01:39:38.476Z,2.90
2022-11-29T01:40:01.222Z,2.90
2022-11-29T01:40:23.890Z,3.00
2022-11-29T01:40:48.014Z,3.00
2022-11-29T01:41:12.818Z,3.00
2022-11-29T01:41:36.793Z,3.00
2022-11-29T01:42:00.818Z,3.00
2022-11-29T01:42:23.532Z,3.00
2022-11-29T01:42:46.590Z,3.00
2022-11-29T01:43:13.763Z,3.00
2022-11-29T01:43:54.565Z,3.00
2022-11-29T01:44:50.345Z,2.90
2022-11-29T01:45:21.608Z,2.90
2022-11-29T01:45:44.611Z,2.90
2022-11-29T01:46:07.468Z,2.90
2022-11-29T01:46:31.134Z,2.90
2022-11-29T01:46:54.625Z,2.90
2022-11-29T01:47:17.376Z,2.90
2022-11-29T01:47:41.092Z,2.90
2022-11-29T01:48:04.667Z,2.90
2022-11-29T01:48:28.851Z,2.90
2022-11-29T01:48:54.735Z,2.90
2022-11-29T01:49:18.885Z,2.90
2022-11-29T01:49:42.716Z,2.80
2022-11-29T01:50:07.406Z,2.80
2022-11-29T01:50:30.237Z,2.80
2022-11-29T01:50:53.010Z,2.80
2022-11-29T01:51:15.705Z,2.80
2022-11-29T01:51:39.430Z,2.80
2022-11-29T01:52:04.216Z,2.80
2022-11-29T01:52:28.170Z,2.80
2022-11-29T01:52:50.846Z,2.80
2022-11-29T01:53:13.751Z,2.80
2022-11-29T01:53:36.616Z,2.80
2022-11-29T01:53:59.541Z,2.80
2022-11-29T01:54:22.353Z,2.80
2022-11-29T01:54:47.139Z,2.80
2022-11-29T01:55:10.377Z,2.80
2022-11-29T01:55:33.365Z,2.80
2022-11-29T01:55:58.429Z,2.80
2022-11-29T01:56:21.211Z,2.90
2022-11-29T01:56:43.995Z,2.90
2022-11-29T01:57:07.675Z,2.90
2022-11-29T01:57:30.477Z,2.90
2022-11-29T01:57:53.352Z,2.90
2022-11-29T01:58:16.836Z,2.90
2022-11-29T01:58:39.871Z,2.90
2022-11-29T01:59:03.356Z,2.90
2022-11-29T01:59:27.193Z,2.90
2022-11-29T01:59:51.371Z,2.90
2022-11-29T02:00:16.370Z,2.80
2022-11-29T02:00:39.015Z,2.90
2022-11-29T02:01:04.210Z,2.80
2022-11-29T02:01:27.043Z,2.80
2022-11-29T02:01:49.816Z,2.90
2022-11-29T02:02:14.116Z,2.90
2022-11-29T02:02:38.768Z,2.90
2022-11-29T02:03:04.046Z,2.90
2022-11-29T02:03:26.762Z,2.90
2022-11-29T02:03:49.512Z,2.90
2022-11-29T02:04:13.822Z,2.80
2022-11-29T02:04:36.545Z,2.90
2022-11-29T02:04:59.680Z,2.80
2022-11-29T02:05:25.272Z,2.80
2022-11-29T02:05:49.284Z,2.80
2022-11-29T02:06:11.991Z,2.80
2022-11-29T02:06:34.726Z,2.80
2022-11-29T02:06:57.425Z,2.80
2022-11-29T02:07:20.169Z,2.80
2022-11-29T02:07:47.444Z,2.80
2022-11-29T02:08:13.572Z,2.80
2022-11-29T02:08:38.132Z,2.80
2022-11-29T02:09:00.927Z,2.80
2022-11-29T02:09:23.666Z,2.80
2022-11-29T02:09:46.392Z,2.80
2022-11-29T02:10:10.246Z,2.90
2022-11-29T02:10:40.631Z,2.90
2022-11-29T02:11:17.166Z,2.90
2022-11-29T02:12:00.940Z,2.90
2022-11-29T02:12:27.515Z,2.90
2022-11-29T02:12:55.434Z,2.90
2022-11-29T02:13:23.171Z,3.00
2022-11-29T02:13:49.525Z,3.00
2022-11-29T02:14:25.111Z,3.00
2022-11-29T02:15:05.757Z,3.00
2022-11-29T02:15:37.983Z,3.00
2022-11-29T02:16:04.248Z,3.00
2022-11-29T02:16:29.492Z,3.00
2022-11-29T02:16:56.818Z,2.90
2022-11-29T02:17:23.501Z,2.90
2022-11-29T02:17:58.492Z,2.90
2022-11-29T02:18:22.714Z,3.00
2022-11-29T02:18:50.291Z,2.90
2022-11-29T02:19:22.556Z,3.00
2022-11-29T02:20:10.407Z,3.00
2022-11-29T02:20:51.670Z,2.90
2022-11-29T02:21:27.830Z,2.90
2022-11-29T02:21:51.996Z,2.90
2022-11-29T02:22:15.581Z,2.90
2022-11-29T02:22:40.535Z,2.90
2022-11-29T02:23:08.950Z,2.90
2022-11-29T02:23:51.130Z,2.90
2022-11-29T02:24:53.130Z,2.90
2022-11-29T02:25:39.531Z,2.90
2022-11-29T02:26:07.997Z,2.90
2022-11-29T02:26:52.169Z,2.90
2022-11-29T02:27:30.535Z,2.90
2022-11-29T02:28:25.587Z,2.90
2022-11-29T02:29:18.077Z,2.90
2022-11-29T02:30:10.887Z,2.90
2022-11-29T02:30:59.390Z,2.90
2022-11-29T02:31:44.228Z,2.90
2022-11-29T02:32:30.400Z,2.90
2022-11-29T02:33:23.451Z,2.90
2022-11-29T02:34:00.542Z,2.80
2022-11-29T02:34:51.470Z,2.90
2022-11-29T02:35:20.755Z,2.90
2022-11-29T02:35:56.931Z,2.90
2022-11-29T02:36:49.251Z,2.90
2022-11-29T02:37:21.686Z,2.90
2022-11-29T02:37:54.213Z,2.90
2022-11-29T02:38:25.346Z,2.90
2022-11-29T02:39:07.350Z,2.90
2022-11-29T02:40:05.760Z,2.90
2022-11-29T02:40:37.433Z,2.90
2022-11-29T02:41:15.666Z,3.00
2022-11-29T02:41:47.362Z,3.00
2022-11-29T02:42:54.096Z,3.00
2022-11-29T02:43:51.130Z,3.00
2022-11-29T02:44:42.849Z,3.00
2022-11-29T02:45:09.906Z,3.00
2022-11-29T02:45:43.955Z,3.00
2022-11-29T02:46:17.177Z,3.00
2022-11-29T02:46:47.357Z,3.00
2022-11-29T02:47:17.102Z,3.00
2022-11-29T02:47:50.726Z,3.00
2022-11-29T02:48:27.170Z,3.00
2022-11-29T02:48:53.796Z,3.00
2022-11-29T02:49:20.320Z,3.00
2022-11-29T02:49:55.501Z,3.00
2022-11-29T02:50:20.243Z,3.00
2022-11-29T02:50:44.228Z,3.00
2022-11-29T02:51:08.510Z,3.00
2022-11-29T02:51:35.774Z,3.00
2022-11-29T02:52:00.476Z,2.90
2022-11-29T02:52:30.346Z,2.90
2022-11-29T02:52:59.837Z,2.90
2022-11-29T02:53:25.112Z,2.90
2022-11-29T02:53:51.371Z,2.90
2022-11-29T02:54:17.650Z,2.80
2022-11-29T02:54:45.727Z,2.80
2022-11-29T02:55:11.986Z,2.80
2022-11-29T02:55:39.082Z,2.80
2022-11-29T02:56:07.207Z,2.80
2022-11-29T02:56:32.632Z,2.80
2022-11-29T02:56:57.259Z,2.80
2022-11-29T02:57:22.237Z,2.80
2022-11-29T02:57:50.231Z,2.80
2022-11-29T02:58:17.611Z,2.80
2022-11-29T02:58:44.157Z,2.80
2022-11-29T02:59:11.351Z,2.80
2022-11-29T02:59:41.126Z,2.80
2022-11-29T03:00:05.862Z,2.70
2022-11-29T03:00:28.658Z,2.70
2022-11-29T03:00:58.301Z,2.70
2022-11-29T03:01:24.510Z,2.70
2022-11-29T03:01:50.526Z,2.70
2022-11-29T03:02:20.187Z,2.70
2022-11-29T03:02:48.479Z,2.70
2022-11-29T03:03:14.551Z,2.70
2022-11-29T03:03:39.197Z,2.70
2022-11-29T03:04:04.796Z,2.70
2022-11-29T03:04:31.860Z,2.80
2022-11-29T03:04:58.230Z,2.80
2022-11-29T03:05:24.115Z,2.80
2022-11-29T03:05:50.071Z,2.80
2022-11-29T03:06:17.980Z,2.80
2022-11-29T03:06:44.608Z,2.80
2022-11-29T03:07:12.066Z,2.90
2022-11-29T03:07:39.599Z,2.90
2022-11-29T03:08:06.706Z,2.90
2022-11-29T03:08:32.318Z,2.90
2022-11-29T03:08:58.710Z,2.80
2022-11-29T03:09:25.088Z,2.80
2022-11-29T03:09:49.611Z,2.90
2022-11-29T03:10:18.252Z,2.90
2022-11-29T03:10:50.532Z,2.90
2022-11-29T03:11:17.816Z,2.80
2022-11-29T03:11:45.942Z,2.80
2022-11-29T03:12:16.716Z,2.90
2022-11-29T03:12:40.830Z,2.90
2022-11-29T03:13:05.801Z,2.90
2022-11-29T03:13:37.016Z,2.90
2022-11-29T03:14:09.652Z,3.00
2022-11-29T03:14:50.587Z,3.00
2022-11-29T03:15:21.495Z,3.00
2022-11-29T03:15:46.581Z,3.00
2022-11-29T03:16:13.943Z,3.00
2022-11-29T03:16:43.248Z,3.00
2022-11-29T03:17:13.111Z,3.00
2022-11-29T03:17:39.831Z,3.00
2022-11-29T03:18:15.092Z,3.00
2022-11-29T03:18:42.551Z,2.90
2022-11-29T03:19:10.930Z,2.90
2022-11-29T03:19:46.231Z,2.90
2022-11-29T03:20:20.155Z,2.90
2022-11-29T03:20:50.345Z,2.90
2022-11-29T03:21:18.075Z,2.90
2022-11-29T03:21:49.115Z,2.90
2022-11-29T03:22:15.356Z,3.00
2022-11-29T03:22:43.192Z,2.90
2022-11-29T03:23:15.527Z,2.90
2022-11-29T03:23:39.525Z,2.90
2022-11-29T03:24:05.113Z,2.90
2022-11-29T03:24:31.018Z,2.90
2022-11-29T03:24:56.320Z,2.90
2022-11-29T03:25:21.917Z,2.90
2022-11-29T03:25:46.537Z,2.90
2022-11-29T03:26:10.950Z,2.90
2022-11-29T03:26:35.836Z,2.90
2022-11-29T03:27:01.433Z,2.90
2022-11-29T03:27:26.445Z,2.90
2022-11-29T03:27:56.556Z,2.90
2022-11-29T03:28:20.436Z,2.90
2022-11-29T03:28:46.056Z,2.90
2022-11-29T03:29:12.370Z,3.00
2022-11-29T03:29:38.075Z,2.90
2022-11-29T03:30:00.861Z,3.00
2022-11-29T03:30:23.672Z,3.00
2022-11-29T03:30:50.038Z,3.00
2022-11-29T03:31:16.180Z,3.00
2022-11-29T03:31:41.732Z,3.00
2022-11-29T03:32:07.683Z,3.00
2022-11-29T03:32:33.622Z,3.00
2022-11-29T03:32:58.851Z,3.00
2022-11-29T03:33:27.091Z,2.90
2022-11-29T03:33:53.920Z,3.00
2022-11-29T03:34:20.335Z,2.90
2022-11-29T03:34:54.333Z,2.90
2022-11-29T03:35:22.586Z,2.90
2022-11-29T03:35:48.545Z,2.90
2022-11-29T03:36:14.430Z,2.90
2022-11-29T03:36:40.811Z,2.90
2022-11-29T03:37:06.581Z,2.90
2022-11-29T03:37:32.775Z,3.00
2022-11-29T03:37:58.486Z,3.00
2022-11-29T03:38:26.273Z,3.00
2022-11-29T03:38:49.106Z,3.00
2022-11-29T03:39:17.606Z,3.10
2022-11-29T03:39:45.606Z,3.00
2022-11-29T03:40:09.790Z,3.00
2022-11-29T03:40:39.526Z,3.00
2022-11-29T03:41:06.237Z,3.00
2022-11-29T03:41:31.197Z,3.00
2022-11-29T03:41:55.849Z,3.00
2022-11-29T03:42:22.001Z,3.10
2022-11-29T03:42:48.719Z,3.00
2022-11-29T03:43:14.576Z,3.00
2022-11-29T03:43:42.106Z,3.00
2022-11-29T03:44:09.920Z,3.00
2022-11-29T03:44:36.157Z,3.00
2022-11-29T03:45:07.912Z,3.00
2022-11-29T03:45:33.118Z,3.10
2022-11-29T03:45:57.955Z,3.10
2022-11-29T03:46:25.635Z,3.00
2022-11-29T03:46:52.780Z,3.00
2022-11-29T03:47:16.580Z,3.00
2022-11-29T03:47:41.442Z,3.00
2022-11-29T03:48:07.672Z,3.00
2022-11-29T03:48:33.303Z,2.90
2022-11-29T03:48:59.831Z,2.90
2022-11-29T03:49:26.070Z,2.90
2022-11-29T03:49:51.831Z,2.90
2022-11-29T03:50:16.630Z,3.00
2022-11-29T03:50:40.611Z,2.90
2022-11-29T03:51:05.871Z,2.90
2022-11-29T03:51:34.406Z,2.90
2022-11-29T03:52:01.347Z,2.90
2022-11-29T03:52:27.178Z,2.90
2022-11-29T03:52:52.075Z,2.80
2022-11-29T03:53:17.961Z,2.80
2022-11-29T03:53:45.650Z,2.90
2022-11-29T03:54:11.061Z,2.90
2022-11-29T03:54:38.796Z,2.80
2022-11-29T03:55:10.235Z,2.80
2022-11-29T03:55:45.390Z,2.90
2022-11-29T03:56:26.575Z,2.90
2022-11-29T03:56:50.136Z,2.90
2022-11-29T03:57:13.055Z,2.90
2022-11-29T03:57:40.777Z,2.90
2022-11-29T03:58:14.715Z,2.90
2022-11-29T03:58:46.576Z,2.90
2022-11-29T03:59:18.809Z,2.90
2022-11-29T03:59:49.106Z,2.90
2022-11-29T04:00:12.955Z,2.90
2022-11-29T04:00:41.916Z,2.90
2022-11-29T04:01:25.926Z,2.90
2022-11-29T04:02:22.156Z,2.90
2022-11-29T04:03:03.084Z,2.90
2022-11-29T04:03:59.117Z,2.90
2022-11-29T04:04:41.808Z,2.90
2022-11-29T04:05:36.620Z,3.00
2022-11-29T04:06:20.836Z,2.90
2022-11-29T04:06:51.511Z,3.00
2022-11-29T04:07:25.613Z,3.00
2022-11-29T04:08:01.392Z,2.90
2022-11-29T04:08:45.531Z,2.90
2022-11-29T04:09:24.407Z,3.00
2022-11-29T04:09:57.607Z,2.90
2022-11-29T04:10:34.615Z,2.90
2022-11-29T04:11:30.936Z,3.00
2022-11-29T04:12:17.242Z,3.00
2022-11-29T04:13:18.550Z,2.90
2022-11-29T04:13:55.910Z,3.00
2022-11-29T04:14:54.652Z,3.00
2022-11-29T04:15:53.075Z,3.00
2022-11-29T04:16:47.516Z,3.00
2022-11-29T04:17:36.004Z,2.90
2022-11-29T04:18:46.375Z,2.90
2022-11-29T04:19:44.472Z,2.90
2022-11-29T04:20:37.579Z,2.80
2022-11-29T04:21:50.637Z,2.90
2022-11-29T04:22:29.447Z,2.90
2022-11-29T04:23:50.481Z,2.90
2022-11-29T04:24:39.379Z,2.90
2022-11-29T04:25:30.360Z,2.90
2022-11-29T04:26:02.318Z,2.90
2022-11-29T04:27:06.872Z,2.90
2022-11-29T04:27:49.680Z,2.90
2022-11-29T04:28:35.167Z,2.80
2022-11-29T04:29:12.691Z,2.80
2022-11-29T04:30:01.281Z,2.80
2022-11-29T04:30:24.220Z,2.80
2022-11-29T04:30:51.871Z,2.80
2022-11-29T04:31:17.834Z,2.70
2022-11-29T04:31:50.535Z,2.70
2022-11-29T04:32:58.175Z,2.60
2022-11-29T04:33:47.731Z,2.60
2022-11-29T04:34:31.980Z,2.60
2022-11-29T04:35:11.436Z,2.60
2022-11-29T04:35:56.231Z,2.70
2022-11-29T04:36:46.146Z,2.70
2022-11-29T04:37:32.020Z,2.70
2022-11-29T04:38:18.941Z,2.70
2022-11-29T04:39:03.185Z,2.80
2022-11-29T04:39:46.302Z,2.90
2022-11-29T04:40:30.066Z,2.80
2022-11-29T04:41:02.546Z,2.80
2022-11-29T04:41:34.435Z,2.80
2022-11-29T04:42:10.550Z,2.80
2022-11-29T04:42:46.480Z,2.80
2022-11-29T04:43:35.736Z,2.90
2022-11-29T04:44:08.311Z,2.80
2022-11-29T04:44:53.003Z,2.80
2022-11-29T04:45:45.005Z,2.80
2022-11-29T04:46:33.392Z,2.90
2022-11-29T04:47:14.826Z,2.90
2022-11-29T04:47:47.726Z,2.90
2022-11-29T04:48:23.830Z,2.90
2022-11-29T04:49:03.371Z,2.90
2022-11-29T04:50:07.677Z,3.00
2022-11-29T04:50:43.511Z,3.10
2022-11-29T04:51:12.627Z,3.00
2022-11-29T04:51:48.895Z,3.00
2022-11-29T04:52:39.490Z,2.90
2022-11-29T04:53:24.211Z,3.00
2022-11-29T04:53:52.795Z,3.00
2022-11-29T04:54:19.937Z,3.00
2022-11-29T04:54:46.165Z,3.00
2022-11-29T04:55:19.428Z,3.00
2022-11-29T04:55:49.757Z,3.00
2022-11-29T04:56:16.001Z,3.00
2022-11-29T04:56:41.458Z,3.00
2022-11-29T04:57:07.566Z,3.00
2022-11-29T04:57:35.447Z,3.00
2022-11-29T04:58:01.690Z,3.00
2022-11-29T04:58:26.968Z,3.00
2022-11-29T04:58:55.591Z,3.00
2022-11-29T04:59:20.993Z,3.00
2022-11-29T04:59:45.055Z,3.10
2022-11-29T05:00:10.151Z,3.10
2022-11-29T05:00:35.196Z,3.00
2022-11-29T05:01:04.157Z,3.10
2022-11-29T05:01:31.550Z,3.10
2022-11-29T05:02:01.055Z,3.10
2022-11-29T05:02:32.834Z,3.10
2022-11-29T05:02:57.061Z,3.10
2022-11-29T05:03:23.917Z,3.10
2022-11-29T05:03:55.396Z,3.10
2022-11-29T05:04:22.933Z,3.10
2022-11-29T05:04:48.706Z,3.10
2022-11-29T05:05:18.886Z,3.10
2022-11-29T05:05:45.341Z,3.10
2022-11-29T05:06:20.645Z,3.10
2022-11-29T05:06:46.836Z,3.10
2022-11-29T05:07:14.530Z,3.10
2022-11-29T05:07:40.595Z,3.10
2022-11-29T05:08:12.980Z,3.10
2022-11-29T05:08:42.561Z,3.10
2022-11-29T05:09:10.912Z,3.10
2022-11-29T05:09:43.427Z,3.10
2022-11-29T05:10:20.613Z,3.10
2022-11-29T05:10:48.438Z,3.10
2022-11-29T05:11:14.711Z,3.10
2022-11-29T05:11:44.788Z,3.10
2022-11-29T05:12:11.212Z,3.10
2022-11-29T05:12:38.507Z,3.10
2022-11-29T05:13:06.551Z,3.10
2022-11-29T05:13:32.330Z,3.10
2022-11-29T05:13:57.500Z,3.10
2022-11-29T05:14:24.966Z,3.10
2022-11-29T05:14:57.367Z,3.10
2022-11-29T05:15:52.359Z,3.10
2022-11-29T05:16:21.490Z,3.10
2022-11-29T05:16:49.069Z,3.10
2022-11-29T05:17:32.534Z,3.10
2022-11-29T05:17:59.041Z,3.10
2022-11-29T05:18:26.710Z,3.10
2022-11-29T05:19:17.774Z,3.10
2022-11-29T05:19:49.760Z,3.10
2022-11-29T05:20:19.416Z,3.10
2022-11-29T05:20:47.014Z,3.10
2022-11-29T05:21:11.947Z,3.10
2022-11-29T05:21:41.606Z,3.10
2022-11-29T05:22:13.456Z,3.10
2022-11-29T05:22:40.166Z,3.10
2022-11-29T05:23:12.078Z,3.10
2022-11-29T05:23:44.972Z,3.10
2022-11-29T05:24:15.040Z,3.10
2022-11-29T05:24:48.607Z,3.10
2022-11-29T05:25:28.385Z,3.20
2022-11-29T05:25:53.346Z,3.20
2022-11-29T05:26:19.015Z,3.20
2022-11-29T05:26:45.011Z,3.10
2022-11-29T05:27:13.256Z,3.10
2022-11-29T05:27:42.472Z,3.10
2022-11-29T05:28:10.576Z,3.10
2022-11-29T05:28:36.931Z,3.20
2022-11-29T05:29:02.251Z,3.10
2022-11-29T05:29:28.001Z,3.10
2022-11-29T05:29:54.585Z,3.10
2022-11-29T05:30:19.610Z,3.10
2022-11-29T05:31:03.398Z,3.00
2022-11-29T05:31:38.603Z,3.00
2022-11-29T05:32:11.591Z,3.00
2022-11-29T05:32:35.991Z,3.00
2022-11-29T05:33:03.668Z,2.90
2022-11-29T05:33:35.382Z,2.90
2022-11-29T05:34:24.052Z,2.90
2022-11-29T05:34:55.854Z,2.90
2022-11-29T05:35:52.144Z,2.90
2022-11-29T05:36:17.972Z,2.90
2022-11-29T05:36:43.099Z,2.90
2022-11-29T05:37:11.001Z,2.90
2022-11-29T05:37:38.235Z,2.90
2022-11-29T05:38:03.946Z,2.90
2022-11-29T05:38:53.293Z,2.90
2022-11-29T05:39:40.290Z,2.90
2022-11-29T05:40:40.862Z,2.90
2022-11-29T05:41:12.951Z,2.90
2022-11-29T05:41:47.596Z,2.90
2022-11-29T05:42:26.035Z,2.90
2022-11-29T05:42:56.666Z,2.90
2022-11-29T05:43:33.511Z,2.90
2022-11-29T05:44:03.796Z,2.80
2022-11-29T05:44:31.031Z,2.80
2022-11-29T05:44:55.681Z,2.80
2022-11-29T05:45:21.172Z,2.80
2022-11-29T05:45:46.607Z,2.80
2022-11-29T05:46:13.002Z,2.80
2022-11-29T05:46:38.081Z,2.80
2022-11-29T05:47:02.166Z,2.80
2022-11-29T05:47:31.560Z,2.80
2022-11-29T05:47:56.797Z,2.80
2022-11-29T05:48:22.771Z,2.80
2022-11-29T05:48:49.950Z,2.80
2022-11-29T05:49:19.412Z,2.80
2022-11-29T05:49:43.671Z,2.90
2022-11-29T05:50:10.011Z,2.80
2022-11-29T05:50:35.610Z,2.80
2022-11-29T05:51:07.202Z,2.90
2022-11-29T05:51:41.970Z,2.90
2022-11-29T05:52:18.482Z,2.90
2022-11-29T05:52:47.666Z,2.90
2022-11-29T05:53:16.548Z,2.90
2022-11-29T05:53:43.463Z,2.90
2022-11-29T05:54:13.438Z,3.00
2022-11-29T05:54:37.786Z,3.00
2022-11-29T05:55:14.876Z,3.00
2022-11-29T05:55:41.777Z,3.00
2022-11-29T05:56:07.220Z,3.00
2022-11-29T05:56:36.811Z,3.00
2022-11-29T05:57:08.525Z,3.00
2022-11-29T05:57:36.647Z,3.00
2022-11-29T05:58:01.277Z,3.10
2022-11-29T05:58:30.878Z,3.00
2022-11-29T05:58:56.330Z,3.10
2022-11-29T05:59:20.738Z,3.10
2022-11-29T05:59:43.506Z,3.10
2022-11-29T06:00:07.844Z,3.10
2022-11-29T06:00:34.249Z,3.10
2022-11-29T06:01:02.074Z,3.10
2022-11-29T06:01:25.765Z,3.10
2022-11-29T06:01:54.570Z,3.10
2022-11-29T06:02:29.378Z,3.10
2022-11-29T06:02:56.367Z,3.10
2022-11-29T06:03:22.861Z,3.10
2022-11-29T06:03:51.026Z,3.10
2022-11-29T06:04:16.480Z,3.10
2022-11-29T06:04:50.166Z,3.10
2022-11-29T06:05:16.955Z,3.10
2022-11-29T06:05:46.952Z,3.00
2022-11-29T06:06:14.587Z,3.10
2022-11-29T06:06:43.691Z,3.10
2022-11-29T06:07:10.700Z,3.10
2022-11-29T06:07:38.492Z,3.10
2022-11-29T06:08:05.601Z,3.10
2022-11-29T06:08:35.496Z,3.10
2022-11-29T06:09:00.555Z,3.10
2022-11-29T06:09:26.846Z,3.10
2022-11-29T06:09:51.656Z,3.10
2022-11-29T06:10:17.924Z,3.10
2022-11-29T06:10:51.287Z,3.10
2022-11-29T06:11:16.006Z,3.10
2022-11-29T06:11:42.121Z,3.10
2022-11-29T06:12:06.895Z,3.00
2022-11-29T06:12:36.098Z,3.00
2022-11-29T06:13:08.607Z,3.10
2022-11-29T06:13:38.577Z,3.00
2022-11-29T06:14:05.781Z,3.00
2022-11-29T06:15:11.852Z,3.00
2022-11-29T06:15:49.006Z,3.00
2022-11-29T06:16:52.235Z,3.00
2022-11-29T06:17:41.855Z,3.00
2022-11-29T06:18:17.174Z,3.00
2022-11-29T06:18:56.940Z,2.90
2022-11-29T06:19:50.254Z,3.00
2022-11-29T06:20:44.069Z,3.00
2022-11-29T06:21:17.134Z,3.10
2022-11-29T06:21:45.783Z,3.10
2022-11-29T06:22:52.861Z,3.10
2022-11-29T06:23:42.292Z,3.10
2022-11-29T06:24:36.224Z,3.10